De Soto, Illinois
Current Conditions -  °F | °C
As of 3:52 AM on Monday 26 Jan 2015 (Local Time) from KMDH Reporting Station
Scattered Clouds Scattered Clouds  
Wind Chill: 16°   Ceiling: Unl
Heat Index: 29°   Visibility: 10mi
Dew Point: 22°   Wind: 18mph
Humidity: 75%   Direction: 330°NNW
Pressure: 30.03"   Gusts: 28mph
Location:  37.82°N, 89.23°W
Report Text: KMDH 260952Z AUTO 33016G24KT 10SM SCT018 M02/M06 A3003 RMK AO2 SLP170 T10171056
Loading
Personal Weather Stations






























Interactive Weather Map New forecast layout! Learn more

10-Day Weather Forecast

Advertisements
Track Severe Weather on mobile